sensor_id;sensor_type;location;lat;lon;timestamp;P1;durP1;ratioP1;P2;durP2;ratioP2
53714;SDS011;39608;55.630;37.864;2022-10-26T00:03:05;4.05;;;2.13;;
53714;SDS011;39608;55.630;37.864;2022-10-26T00:08:07;2.90;;;2.13;;
53714;SDS011;39608;55.630;37.864;2022-10-26T00:13:10;5.75;;;2.58;;
53714;SDS011;39608;55.630;37.864;2022-10-26T00:18:14;3.50;;;2.65;;
53714;SDS011;39608;55.630;37.864;2022-10-26T00:23:17;6.18;;;2.28;;
53714;SDS011;39608;55.630;37.864;2022-10-26T00:28:19;3.75;;;2.65;;
53714;SDS011;39608;55.630;37.864;2022-10-26T00:33:22;9.48;;;3.25;;
53714;SDS011;39608;55.630;37.864;2022-10-26T00:38:24;7.93;;;2.55;;
53714;SDS011;39608;55.630;37.864;2022-10-26T00:43:33;5.35;;;2.60;;
53714;SDS011;39608;55.630;37.864;2022-10-26T00:48:39;4.07;;;2.50;;
53714;SDS011;39608;55.630;37.864;2022-10-26T00:53:43;4.35;;;2.55;;
53714;SDS011;39608;55.630;37.864;2022-10-26T00:58:46;5.78;;;2.67;;
53714;SDS011;39608;55.630;37.864;2022-10-26T01:03:50;4.57;;;2.58;;
53714;SDS011;39608;55.630;37.864;2022-10-26T01:08:52;3.80;;;2.30;;
53714;SDS011;39608;55.630;37.864;2022-10-26T01:13:55;5.40;;;2.53;;
53714;SDS011;39608;55.630;37.864;2022-10-26T01:19:17;4.53;;;2.28;;
53714;SDS011;39608;55.630;37.864;2022-10-26T01:25:02;4.90;;;1.95;;
53714;SDS011;39608;55.630;37.864;2022-10-26T01:30:19;4.57;;;1.95;;
53714;SDS011;39608;55.630;37.864;2022-10-26T01:35:29;3.63;;;1.95;;
53714;SDS011;39608;55.630;37.864;2022-10-26T01:40:38;2.38;;;1.70;;
53714;SDS011;39608;55.630;37.864;2022-10-26T01:45:47;4.45;;;2.03;;
53714;SDS011;39608;55.630;37.864;2022-10-26T01:50:52;5.57;;;1.95;;
53714;SDS011;39608;55.630;37.864;2022-10-26T01:55:57;7.55;;;2.50;;
53714;SDS011;39608;55.630;37.864;2022-10-26T02:01:03;3.03;;;2.25;;
53714;SDS011;39608;55.630;37.864;2022-10-26T02:06:18;5.53;;;2.05;;
53714;SDS011;39608;55.630;37.864;2022-10-26T02:11:35;3.47;;;2.00;;
53714;SDS011;39608;55.630;37.864;2022-10-26T02:16:43;4.68;;;2.33;;
53714;SDS011;39608;55.630;37.864;2022-10-26T02:22:00;5.05;;;1.98;;
53714;SDS011;39608;55.630;37.864;2022-10-26T02:27:07;4.97;;;2.72;;
53714;SDS011;39608;55.630;37.864;2022-10-26T02:32:17;5.57;;;2.30;;
53714;SDS011;39608;55.630;37.864;2022-10-26T02:37:20;5.57;;;2.20;;
53714;SDS011;39608;55.630;37.864;2022-10-26T02:42:24;4.95;;;2.50;;
53714;SDS011;39608;55.630;37.864;2022-10-26T02:47:29;4.93;;;2.28;;
53714;SDS011;39608;55.630;37.864;2022-10-26T02:52:33;3.60;;;2.40;;
53714;SDS011;39608;55.630;37.864;2022-10-26T02:57:43;4.78;;;2.03;;
53714;SDS011;39608;55.630;37.864;2022-10-26T03:02:51;5.50;;;2.33;;
53714;SDS011;39608;55.630;37.864;2022-10-26T03:07:56;3.50;;;2.08;;
53714;SDS011;39608;55.630;37.864;2022-10-26T03:12:59;2.90;;;2.20;;
53714;SDS011;39608;55.630;37.864;2022-10-26T03:18:03;3.17;;;1.80;;
53714;SDS011;39608;55.630;37.864;2022-10-26T03:23:06;5.60;;;2.35;;
53714;SDS011;39608;55.630;37.864;2022-10-26T03:28:08;3.65;;;2.00;;
53714;SDS011;39608;55.630;37.864;2022-10-26T03:33:11;4.45;;;2.03;;
53714;SDS011;39608;55.630;37.864;2022-10-26T03:38:13;2.80;;;2.22;;
53714;SDS011;39608;55.630;37.864;2022-10-26T03:43:15;3.80;;;2.35;;
53714;SDS011;39608;55.630;37.864;2022-10-26T03:48:19;2.83;;;2.05;;
53714;SDS011;39608;55.630;37.864;2022-10-26T03:53:21;7.20;;;2.67;;
53714;SDS011;39608;55.630;37.864;2022-10-26T03:58:23;2.05;;;1.65;;
53714;SDS011;39608;55.630;37.864;2022-10-26T04:03:28;4.00;;;2.40;;
53714;SDS011;39608;55.630;37.864;2022-10-26T04:08:30;5.38;;;2.40;;
53714;SDS011;39608;55.630;37.864;2022-10-26T04:13:33;4.25;;;2.30;;
53714;SDS011;39608;55.630;37.864;2022-10-26T04:18:36;6.20;;;2.35;;
53714;SDS011;39608;55.630;37.864;2022-10-26T04:23:38;7.22;;;3.65;;
53714;SDS011;39608;55.630;37.864;2022-10-26T04:28:40;5.22;;;2.58;;
53714;SDS011;39608;55.630;37.864;2022-10-26T04:33:43;5.00;;;3.00;;
53714;SDS011;39608;55.630;37.864;2022-10-26T04:38:47;4.25;;;2.95;;
53714;SDS011;39608;55.630;37.864;2022-10-26T04:43:49;6.82;;;2.97;;
53714;SDS011;39608;55.630;37.864;2022-10-26T04:48:55;4.32;;;2.47;;
53714;SDS011;39608;55.630;37.864;2022-10-26T04:53:57;4.25;;;2.70;;
53714;SDS011;39608;55.630;37.864;2022-10-26T04:58:59;4.13;;;2.72;;
53714;SDS011;39608;55.630;37.864;2022-10-26T05:04:03;3.60;;;2.58;;
53714;SDS011;39608;55.630;37.864;2022-10-26T05:09:05;3.80;;;3.35;;
53714;SDS011;39608;55.630;37.864;2022-10-26T05:14:08;5.07;;;3.28;;
53714;SDS011;39608;55.630;37.864;2022-10-26T05:19:13;4.72;;;3.28;;
53714;SDS011;39608;55.630;37.864;2022-10-26T05:24:15;7.10;;;3.78;;
53714;SDS011;39608;55.630;37.864;2022-10-26T05:29:17;7.55;;;3.25;;
53714;SDS011;39608;55.630;37.864;2022-10-26T05:34:21;4.70;;;3.22;;
53714;SDS011;39608;55.630;37.864;2022-10-26T05:39:23;4.50;;;2.85;;
53714;SDS011;39608;55.630;37.864;2022-10-26T05:44:25;7.22;;;3.80;;
53714;SDS011;39608;55.630;37.864;2022-10-26T05:49:29;3.75;;;3.08;;
53714;SDS011;39608;55.630;37.864;2022-10-26T05:54:31;11.13;;;3.08;;
53714;SDS011;39608;55.630;37.864;2022-10-26T05:59:33;4.65;;;3.17;;
53714;SDS011;39608;55.630;37.864;2022-10-26T06:04:39;3.55;;;2.70;;
53714;SDS011;39608;55.630;37.864;2022-10-26T06:09:47;8.43;;;3.08;;
53714;SDS011;39608;55.630;37.864;2022-10-26T06:14:50;3.50;;;2.80;;
53714;SDS011;39608;55.630;37.864;2022-10-26T06:20:01;7.43;;;3.28;;
53714;SDS011;39608;55.630;37.864;2022-10-26T06:25:16;7.80;;;3.00;;
53714;SDS011;39608;55.630;37.864;2022-10-26T06:30:28;5.88;;;3.28;;
53714;SDS011;39608;55.630;37.864;2022-10-26T06:35:32;4.60;;;2.90;;
53714;SDS011;39608;55.630;37.864;2022-10-26T06:40:46;3.30;;;2.78;;
53714;SDS011;39608;55.630;37.864;2022-10-26T06:45:53;3.72;;;2.53;;
53714;SDS011;39608;55.630;37.864;2022-10-26T06:51:06;7.88;;;4.00;;
53714;SDS011;39608;55.630;37.864;2022-10-26T06:56:13;7.78;;;3.65;;
53714;SDS011;39608;55.630;37.864;2022-10-26T07:01:16;5.22;;;3.25;;
53714;SDS011;39608;55.630;37.864;2022-10-26T07:06:20;5.53;;;3.63;;
53714;SDS011;39608;55.630;37.864;2022-10-26T07:11:22;7.35;;;3.83;;
53714;SDS011;39608;55.630;37.864;2022-10-26T07:16:25;7.68;;;3.65;;
53714;SDS011;39608;55.630;37.864;2022-10-26T07:21:34;13.15;;;4.20;;
53714;SDS011;39608;55.630;37.864;2022-10-26T07:26:36;8.73;;;3.85;;
53714;SDS011;39608;55.630;37.864;2022-10-26T07:31:38;6.40;;;3.72;;
53714;SDS011;39608;55.630;37.864;2022-10-26T07:36:42;5.55;;;3.83;;
53714;SDS011;39608;55.630;37.864;2022-10-26T07:41:44;6.88;;;3.92;;
53714;SDS011;39608;55.630;37.864;2022-10-26T07:46:46;5.22;;;3.55;;
53714;SDS011;39608;55.630;37.864;2022-10-26T07:51:50;6.07;;;3.85;;
53714;SDS011;39608;55.630;37.864;2022-10-26T07:56:52;5.18;;;3.70;;
53714;SDS011;39608;55.630;37.864;2022-10-26T08:01:54;6.15;;;3.63;;
53714;SDS011;39608;55.630;37.864;2022-10-26T08:06:57;7.63;;;4.40;;
53714;SDS011;39608;55.630;37.864;2022-10-26T08:11:59;11.70;;;4.28;;
53714;SDS011;39608;55.630;37.864;2022-10-26T08:17:01;15.27;;;3.50;;
53714;SDS011;39608;55.630;37.864;2022-10-26T08:22:05;8.07;;;3.55;;
53714;SDS011;39608;55.630;37.864;2022-10-26T08:27:09;4.35;;;3.10;;
53714;SDS011;39608;55.630;37.864;2022-10-26T08:32:11;5.68;;;3.58;;
53714;SDS011;39608;55.630;37.864;2022-10-26T08:37:14;6.30;;;3.60;;
53714;SDS011;39608;55.630;37.864;2022-10-26T08:42:17;7.13;;;3.38;;
53714;SDS011;39608;55.630;37.864;2022-10-26T08:47:24;7.50;;;3.83;;
53714;SDS011;39608;55.630;37.864;2022-10-26T08:52:34;6.72;;;3.47;;
53714;SDS011;39608;55.630;37.864;2022-10-26T08:57:40;5.65;;;3.33;;
53714;SDS011;39608;55.630;37.864;2022-10-26T09:02:43;4.75;;;3.45;;
53714;SDS011;39608;55.630;37.864;2022-10-26T09:07:49;6.82;;;3.47;;
53714;SDS011;39608;55.630;37.864;2022-10-26T09:12:58;9.93;;;3.25;;
53714;SDS011;39608;55.630;37.864;2022-10-26T09:18:06;7.22;;;3.60;;
53714;SDS011;39608;55.630;37.864;2022-10-26T09:23:20;6.50;;;3.28;;
53714;SDS011;39608;55.630;37.864;2022-10-26T09:28:43;4.20;;;3.00;;
53714;SDS011;39608;55.630;37.864;2022-10-26T09:33:48;5.22;;;2.90;;
53714;SDS011;39608;55.630;37.864;2022-10-26T09:38:54;6.80;;;2.85;;
53714;SDS011;39608;55.630;37.864;2022-10-26T09:44:04;6.75;;;2.95;;
53714;SDS011;39608;55.630;37.864;2022-10-26T09:49:13;12.95;;;3.10;;
53714;SDS011;39608;55.630;37.864;2022-10-26T09:54:20;6.60;;;2.35;;
53714;SDS011;39608;55.630;37.864;2022-10-26T09:59:23;8.13;;;2.80;;
53714;SDS011;39608;55.630;37.864;2022-10-26T10:04:26;4.30;;;2.53;;
53714;SDS011;39608;55.630;37.864;2022-10-26T10:09:34;3.80;;;2.67;;
53714;SDS011;39608;55.630;37.864;2022-10-26T10:14:37;2.67;;;2.25;;
53714;SDS011;39608;55.630;37.864;2022-10-26T10:19:42;4.50;;;2.78;;
53714;SDS011;39608;55.630;37.864;2022-10-26T10:24:53;4.95;;;2.75;;
53714;SDS011;39608;55.630;37.864;2022-10-26T10:29:57;4.72;;;2.60;;
53714;SDS011;39608;55.630;37.864;2022-10-26T10:35:00;5.22;;;2.75;;
53714;SDS011;39608;55.630;37.864;2022-10-26T10:40:06;6.88;;;2.60;;
53714;SDS011;39608;55.630;37.864;2022-10-26T10:45:15;4.72;;;2.63;;
53714;SDS011;39608;55.630;37.864;2022-10-26T10:50:20;5.43;;;2.40;;
53714;SDS011;39608;55.630;37.864;2022-10-26T10:55:24;6.00;;;2.80;;
53714;SDS011;39608;55.630;37.864;2022-10-26T11:00:27;5.75;;;2.83;;
53714;SDS011;39608;55.630;37.864;2022-10-26T11:05:37;3.80;;;2.85;;
53714;SDS011;39608;55.630;37.864;2022-10-26T11:10:52;6.90;;;3.13;;
53714;SDS011;39608;55.630;37.864;2022-10-26T11:16:02;8.63;;;2.97;;
53714;SDS011;39608;55.630;37.864;2022-10-26T11:21:12;7.70;;;3.15;;
53714;SDS011;39608;55.630;37.864;2022-10-26T11:26:21;7.78;;;3.15;;
53714;SDS011;39608;55.630;37.864;2022-10-26T11:31:29;6.75;;;3.80;;
53714;SDS011;39608;55.630;37.864;2022-10-26T11:36:34;12.48;;;3.58;;
53714;SDS011;39608;55.630;37.864;2022-10-26T11:41:40;8.20;;;2.65;;
53714;SDS011;39608;55.630;37.864;2022-10-26T11:46:46;7.90;;;2.83;;
53714;SDS011;39608;55.630;37.864;2022-10-26T11:51:54;3.70;;;2.50;;
53714;SDS011;39608;55.630;37.864;2022-10-26T11:57:01;2.78;;;2.30;;
53714;SDS011;39608;55.630;37.864;2022-10-26T12:02:14;11.98;;;2.78;;
53714;SDS011;39608;55.630;37.864;2022-10-26T12:07:20;3.90;;;2.60;;
53714;SDS011;39608;55.630;37.864;2022-10-26T12:12:35;2.50;;;2.03;;
53714;SDS011;39608;55.630;37.864;2022-10-26T12:17:45;5.15;;;2.45;;
53714;SDS011;39608;55.630;37.864;2022-10-26T12:22:51;7.28;;;2.40;;
53714;SDS011;39608;55.630;37.864;2022-10-26T12:27:55;3.53;;;2.00;;
53714;SDS011;39608;55.630;37.864;2022-10-26T12:32:59;7.00;;;2.30;;
53714;SDS011;39608;55.630;37.864;2022-10-26T12:43:50;4.15;;;1.92;;
53714;SDS011;39608;55.630;37.864;2022-10-26T12:48:56;2.40;;;1.83;;
53714;SDS011;39608;55.630;37.864;2022-10-26T12:54:00;5.78;;;3.10;;
53714;SDS011;39608;55.630;37.864;2022-10-26T12:59:22;4.63;;;2.92;;
53714;SDS011;39608;55.630;37.864;2022-10-26T13:04:45;7.65;;;2.80;;
53714;SDS011;39608;55.630;37.864;2022-10-26T13:10:05;4.95;;;3.15;;
53714;SDS011;39608;55.630;37.864;2022-10-26T13:15:25;5.25;;;3.03;;
53714;SDS011;39608;55.630;37.864;2022-10-26T13:20:29;7.38;;;3.28;;
53714;SDS011;39608;55.630;37.864;2022-10-26T13:25:32;7.47;;;3.85;;
53714;SDS011;39608;55.630;37.864;2022-10-26T13:30:45;7.68;;;3.22;;
53714;SDS011;39608;55.630;37.864;2022-10-26T13:35:50;6.55;;;3.15;;
53714;SDS011;39608;55.630;37.864;2022-10-26T13:40:59;5.90;;;3.17;;
53714;SDS011;39608;55.630;37.864;2022-10-26T13:46:19;7.10;;;3.57;;
53714;SDS011;39608;55.630;37.864;2022-10-26T13:51:29;11.57;;;3.95;;
53714;SDS011;39608;55.630;37.864;2022-10-26T13:56:39;18.20;;;3.92;;
53714;SDS011;39608;55.630;37.864;2022-10-26T14:01:47;11.65;;;3.88;;
53714;SDS011;39608;55.630;37.864;2022-10-26T14:07:10;7.20;;;3.63;;
53714;SDS011;39608;55.630;37.864;2022-10-26T14:12:25;5.25;;;3.15;;
53714;SDS011;39608;55.630;37.864;2022-10-26T14:17:31;5.68;;;3.65;;
53714;SDS011;39608;55.630;37.864;2022-10-26T14:22:34;4.72;;;3.25;;
53714;SDS011;39608;55.630;37.864;2022-10-26T14:27:37;7.75;;;3.33;;
53714;SDS011;39608;55.630;37.864;2022-10-26T14:32:41;5.43;;;3.03;;
53714;SDS011;39608;55.630;37.864;2022-10-26T14:37:44;17.00;;;3.10;;
53714;SDS011;39608;55.630;37.864;2022-10-26T14:42:51;5.63;;;2.95;;
53714;SDS011;39608;55.630;37.864;2022-10-26T14:47:58;3.33;;;2.72;;
53714;SDS011;39608;55.630;37.864;2022-10-26T14:53:01;5.75;;;2.70;;
53714;SDS011;39608;55.630;37.864;2022-10-26T14:58:13;8.55;;;3.30;;
53714;SDS011;39608;55.630;37.864;2022-10-26T15:03:20;6.22;;;3.50;;
53714;SDS011;39608;55.630;37.864;2022-10-26T15:08:41;7.72;;;3.40;;
53714;SDS011;39608;55.630;37.864;2022-10-26T15:13:46;8.85;;;4.13;;
53714;SDS011;39608;55.630;37.864;2022-10-26T15:18:52;5.90;;;4.00;;
53714;SDS011;39608;55.630;37.864;2022-10-26T15:23:56;15.50;;;4.57;;
53714;SDS011;39608;55.630;37.864;2022-10-26T15:28:59;8.55;;;4.30;;
53714;SDS011;39608;55.630;37.864;2022-10-26T15:34:10;8.18;;;4.57;;
53714;SDS011;39608;55.630;37.864;2022-10-26T15:39:14;6.82;;;4.10;;
53714;SDS011;39608;55.630;37.864;2022-10-26T15:44:17;6.75;;;3.92;;
53714;SDS011;39608;55.630;37.864;2022-10-26T15:49:23;8.88;;;4.20;;
53714;SDS011;39608;55.630;37.864;2022-10-26T15:54:26;6.30;;;3.45;;
53714;SDS011;39608;55.630;37.864;2022-10-26T15:59:28;6.93;;;3.47;;
53714;SDS011;39608;55.630;37.864;2022-10-26T16:04:32;5.05;;;3.53;;
53714;SDS011;39608;55.630;37.864;2022-10-26T16:09:36;6.35;;;3.42;;
53714;SDS011;39608;55.630;37.864;2022-10-26T16:14:40;3.83;;;2.70;;
53714;SDS011;39608;55.630;37.864;2022-10-26T16:19:43;4.95;;;3.42;;
53714;SDS011;39608;55.630;37.864;2022-10-26T16:24:47;4.93;;;3.03;;
53714;SDS011;39608;55.630;37.864;2022-10-26T16:29:50;4.82;;;2.83;;
53714;SDS011;39608;55.630;37.864;2022-10-26T16:34:53;5.15;;;3.22;;
53714;SDS011;39608;55.630;37.864;2022-10-26T16:39:55;5.93;;;2.90;;
53714;SDS011;39608;55.630;37.864;2022-10-26T16:44:58;7.55;;;2.22;;
53714;SDS011;39608;55.630;37.864;2022-10-26T16:50:02;7.45;;;2.78;;
53714;SDS011;39608;55.630;37.864;2022-10-26T16:55:05;4.10;;;2.35;;
53714;SDS011;39608;55.630;37.864;2022-10-26T17:00:09;6.50;;;2.92;;
53714;SDS011;39608;55.630;37.864;2022-10-26T17:05:13;4.13;;;2.78;;
53714;SDS011;39608;55.630;37.864;2022-10-26T17:10:15;7.22;;;3.95;;
53714;SDS011;39608;55.630;37.864;2022-10-26T17:15:19;6.43;;;3.17;;
53714;SDS011;39608;55.630;37.864;2022-10-26T17:20:24;7.43;;;3.45;;
53714;SDS011;39608;55.630;37.864;2022-10-26T17:25:26;7.80;;;3.25;;
53714;SDS011;39608;55.630;37.864;2022-10-26T17:30:28;4.60;;;2.70;;
53714;SDS011;39608;55.630;37.864;2022-10-26T17:35:33;4.95;;;2.97;;
53714;SDS011;39608;55.630;37.864;2022-10-26T17:40:36;6.00;;;2.90;;
53714;SDS011;39608;55.630;37.864;2022-10-26T17:45:38;4.80;;;3.10;;
53714;SDS011;39608;55.630;37.864;2022-10-26T17:50:41;7.25;;;2.80;;
53714;SDS011;39608;55.630;37.864;2022-10-26T17:55:44;6.88;;;3.08;;
53714;SDS011;39608;55.630;37.864;2022-10-26T18:00:46;4.72;;;2.70;;
53714;SDS011;39608;55.630;37.864;2022-10-26T18:05:50;4.38;;;2.92;;
53714;SDS011;39608;55.630;37.864;2022-10-26T18:10:53;4.35;;;3.13;;
53714;SDS011;39608;55.630;37.864;2022-10-26T18:16:01;8.85;;;3.75;;
53714;SDS011;39608;55.630;37.864;2022-10-26T18:21:06;7.15;;;3.15;;
53714;SDS011;39608;55.630;37.864;2022-10-26T18:26:12;6.18;;;2.83;;
53714;SDS011;39608;55.630;37.864;2022-10-26T18:31:16;7.90;;;3.00;;
53714;SDS011;39608;55.630;37.864;2022-10-26T18:36:21;5.38;;;2.88;;
53714;SDS011;39608;55.630;37.864;2022-10-26T18:41:24;5.25;;;3.00;;
53714;SDS011;39608;55.630;37.864;2022-10-26T18:46:27;5.80;;;3.00;;
53714;SDS011;39608;55.630;37.864;2022-10-26T18:51:34;6.80;;;3.45;;
53714;SDS011;39608;55.630;37.864;2022-10-26T18:56:36;3.47;;;2.58;;
53714;SDS011;39608;55.630;37.864;2022-10-26T19:01:38;5.93;;;2.33;;
53714;SDS011;39608;55.630;37.864;2022-10-26T19:06:43;5.00;;;3.13;;
53714;SDS011;39608;55.630;37.864;2022-10-26T19:11:47;10.27;;;2.53;;
53714;SDS011;39608;55.630;37.864;2022-10-26T19:16:49;5.60;;;2.55;;
53714;SDS011;39608;55.630;37.864;2022-10-26T19:21:53;4.57;;;2.60;;
53714;SDS011;39608;55.630;37.864;2022-10-26T19:26:55;4.45;;;2.75;;
53714;SDS011;39608;55.630;37.864;2022-10-26T19:31:59;2.92;;;2.33;;
53714;SDS011;39608;55.630;37.864;2022-10-26T19:37:03;6.22;;;2.83;;
53714;SDS011;39608;55.630;37.864;2022-10-26T19:42:05;6.68;;;2.85;;
53714;SDS011;39608;55.630;37.864;2022-10-26T19:47:07;5.00;;;2.60;;
53714;SDS011;39608;55.630;37.864;2022-10-26T19:52:11;8.52;;;2.85;;
53714;SDS011;39608;55.630;37.864;2022-10-26T19:57:13;4.10;;;2.38;;
53714;SDS011;39608;55.630;37.864;2022-10-26T20:02:15;3.75;;;2.30;;
53714;SDS011;39608;55.630;37.864;2022-10-26T20:07:24;5.55;;;2.38;;
53714;SDS011;39608;55.630;37.864;2022-10-26T20:12:26;4.22;;;2.47;;
53714;SDS011;39608;55.630;37.864;2022-10-26T20:17:28;3.70;;;2.33;;
53714;SDS011;39608;55.630;37.864;2022-10-26T20:22:32;7.35;;;2.40;;
53714;SDS011;39608;55.630;37.864;2022-10-26T20:27:34;6.43;;;2.10;;
53714;SDS011;39608;55.630;37.864;2022-10-26T20:32:40;3.47;;;2.63;;
53714;SDS011;39608;55.630;37.864;2022-10-26T20:37:44;4.25;;;2.70;;
53714;SDS011;39608;55.630;37.864;2022-10-26T20:42:47;3.78;;;2.72;;
53714;SDS011;39608;55.630;37.864;2022-10-26T20:47:51;6.03;;;2.95;;
53714;SDS011;39608;55.630;37.864;2022-10-26T20:52:57;5.97;;;2.83;;
53714;SDS011;39608;55.630;37.864;2022-10-26T20:58:04;4.53;;;2.83;;
53714;SDS011;39608;55.630;37.864;2022-10-26T21:03:11;3.63;;;2.53;;
53714;SDS011;39608;55.630;37.864;2022-10-26T21:08:15;4.72;;;2.38;;
53714;SDS011;39608;55.630;37.864;2022-10-26T21:13:18;3.65;;;2.58;;
53714;SDS011;39608;55.630;37.864;2022-10-26T21:18:20;4.75;;;2.70;;
53714;SDS011;39608;55.630;37.864;2022-10-26T21:23:23;4.10;;;2.22;;
53714;SDS011;39608;55.630;37.864;2022-10-26T21:28:31;4.75;;;2.72;;
53714;SDS011;39608;55.630;37.864;2022-10-26T21:33:34;3.38;;;2.10;;
53714;SDS011;39608;55.630;37.864;2022-10-26T21:38:38;3.35;;;2.05;;
53714;SDS011;39608;55.630;37.864;2022-10-26T21:43:42;7.05;;;2.55;;
53714;SDS011;39608;55.630;37.864;2022-10-26T21:48:45;7.03;;;2.40;;
53714;SDS011;39608;55.630;37.864;2022-10-26T21:53:50;4.18;;;2.60;;
53714;SDS011;39608;55.630;37.864;2022-10-26T21:58:52;3.25;;;2.10;;
53714;SDS011;39608;55.630;37.864;2022-10-26T22:03:54;3.65;;;2.10;;
53714;SDS011;39608;55.630;37.864;2022-10-26T22:08:57;6.28;;;1.67;;
53714;SDS011;39608;55.630;37.864;2022-10-26T22:13:59;3.92;;;2.20;;
53714;SDS011;39608;55.630;37.864;2022-10-26T22:19:03;4.05;;;2.58;;
53714;SDS011;39608;55.630;37.864;2022-10-26T22:24:08;3.35;;;2.25;;
53714;SDS011;39608;55.630;37.864;2022-10-26T22:29:10;2.78;;;1.95;;
53714;SDS011;39608;55.630;37.864;2022-10-26T22:34:13;4.63;;;2.40;;
53714;SDS011;39608;55.630;37.864;2022-10-26T22:39:17;3.78;;;2.15;;
53714;SDS011;39608;55.630;37.864;2022-10-26T22:44:20;7.15;;;2.22;;
53714;SDS011;39608;55.630;37.864;2022-10-26T22:49:22;2.92;;;1.90;;
53714;SDS011;39608;55.630;37.864;2022-10-26T22:54:25;4.43;;;2.13;;
53714;SDS011;39608;55.630;37.864;2022-10-26T22:59:27;3.75;;;1.67;;
53714;SDS011;39608;55.630;37.864;2022-10-26T23:04:29;3.58;;;1.92;;
53714;SDS011;39608;55.630;37.864;2022-10-26T23:09:33;3.40;;;1.95;;
53714;SDS011;39608;55.630;37.864;2022-10-26T23:14:35;2.67;;;1.70;;
53714;SDS011;39608;55.630;37.864;2022-10-26T23:19:37;2.78;;;2.25;;
53714;SDS011;39608;55.630;37.864;2022-10-26T23:24:40;4.63;;;2.28;;
53714;SDS011;39608;55.630;37.864;2022-10-26T23:29:42;3.67;;;2.08;;
53714;SDS011;39608;55.630;37.864;2022-10-26T23:34:44;3.58;;;2.20;;
53714;SDS011;39608;55.630;37.864;2022-10-26T23:39:48;2.63;;;2.17;;
53714;SDS011;39608;55.630;37.864;2022-10-26T23:44:50;5.60;;;2.30;;
53714;SDS011;39608;55.630;37.864;2022-10-26T23:49:52;4.00;;;2.30;;
53714;SDS011;39608;55.630;37.864;2022-10-26T23:54:58;8.73;;;2.60;;
